Pronóstico
Mapa Interactivo
Aviación
Climatología
Hidrometeorología
Agrometeorología
Estaciones Automáticas
Transparencia
OMM WMO
Portada
Institución
Noticias
Imágenes
Tsunami
Historial
Boletines y Alertas
Contactos
Buscar Contenidos
Informe del Tiempo

SEQUÍA SE MANTIENE EN LAS REGIONES SUR, SUROESTE Y NOROESTE



SADR31 MDSD 231300Z
METAR
METAR MDPP 231300Z 00000KT 9999 FEW018 SCT070 25/22 Q1020=
METAR MDST 231300Z 12010KT 9999 SCT018 24/21 Q1021 NOSIG=
METAR MDPC 231200Z 09012KT 9999 FEW020 25/20 Q1020=
METAR MDBH 231300Z 13012KT 9999 FEW020 SCT100 27/21 Q1020=
METAR MDJB 231300Z 00000KT 9999 FEW016 23/20 Q1020 NOSIG=
METAR MDSD 231300Z 05010KT 9999 FEW018 23/20 Q1020 NOSIG=
METAR MDLR 231300Z 00000KT 9999 SCT016 SCT070 25/24 Q1021=
METAR MDCY 231300Z 00000KT 9999 FEW018 23/21 Q1021=
METAR MDAB 231300Z 00000KT 9999 FEW016 25/22 Q1020=